Perlee, Iowa
Current Conditions -  °F | °C
As of 8:35 PM on Thursday 20 Nov 2014 (Local Time) from KFFL Reporting Station
Clear Clear  
Wind Chill:   Ceiling: Unl
Heat Index: 16°   Visibility: NA
Dew Point:   Wind: 6mph
Humidity: 73%   Direction: 10°N
Pressure: 30.29"   Gusts: NA
Location:  40.9879°N, 91.8924°W
Report Text: KFFL 210235Z AUTO 01005KT CLR M09/M13 A3029 RMK AO2
Loading
Personal Weather Stations






























Interactive Weather Map New forecast layout! Learn more

10-Day Weather Forecast

Advertisements
Track Severe Weather on mobile